sensor_id;sensor_type;location;lat;lon;timestamp;pressure;altitude;pressure_sealevel;temperature;humidity
7614;BME280;3848;42.016;23.098;2022-12-29T00:02:18;98095.06;;;6.60;100.00
7614;BME280;3848;42.016;23.098;2022-12-29T00:04:45;98094.22;;;6.59;100.00
7614;BME280;3848;42.016;23.098;2022-12-29T00:07:13;98092.25;;;6.46;100.00
7614;BME280;3848;42.016;23.098;2022-12-29T00:09:40;98096.50;;;6.49;100.00
7614;BME280;3848;42.016;23.098;2022-12-29T00:12:07;98099.63;;;6.38;100.00
7614;BME280;3848;42.016;23.098;2022-12-29T00:14:33;98100.31;;;6.31;100.00
7614;BME280;3848;42.016;23.098;2022-12-29T00:17:18;98102.06;;;6.35;100.00
7614;BME280;3848;42.016;23.098;2022-12-29T00:19:44;98097.06;;;6.37;100.00
7614;BME280;3848;42.016;23.098;2022-12-29T00:22:30;98097.97;;;6.40;100.00
7614;BME280;3848;42.016;23.098;2022-12-29T00:25:14;98094.59;;;6.40;100.00
7614;BME280;3848;42.016;23.098;2022-12-29T00:27:59;98106.19;;;6.32;100.00
7614;BME280;3848;42.016;23.098;2022-12-29T00:30:46;98095.28;;;6.33;100.00
7614;BME280;3848;42.016;23.098;2022-12-29T00:33:31;98092.06;;;6.38;100.00
7614;BME280;3848;42.016;23.098;2022-12-29T00:36:20;98092.91;;;6.39;100.00
7614;BME280;3848;42.016;23.098;2022-12-29T00:38:53;98081.84;;;6.34;100.00
7614;BME280;3848;42.016;23.098;2022-12-29T00:41:39;98092.94;;;6.40;100.00
7614;BME280;3848;42.016;23.098;2022-12-29T00:44:23;98097.13;;;6.40;100.00
7614;BME280;3848;42.016;23.098;2022-12-29T00:46:50;98093.75;;;6.39;100.00
7614;BME280;3848;42.016;23.098;2022-12-29T00:49:17;98091.19;;;6.38;100.00
7614;BME280;3848;42.016;23.098;2022-12-29T00:51:57;98090.16;;;6.30;100.00
7614;BME280;3848;42.016;23.098;2022-12-29T00:54:25;98088.59;;;6.35;100.00
7614;BME280;3848;42.016;23.098;2022-12-29T00:56:53;98086.97;;;6.37;100.00
7614;BME280;3848;42.016;23.098;2022-12-29T00:59:20;98081.97;;;6.40;100.00
7614;BME280;3848;42.016;23.098;2022-12-29T01:01:47;98069.34;;;6.38;100.00
7614;BME280;3848;42.016;23.098;2022-12-29T01:04:14;98079.47;;;6.40;100.00
7614;BME280;3848;42.016;23.098;2022-12-29T01:06:41;98073.75;;;6.47;100.00
7614;BME280;3848;42.016;23.098;2022-12-29T01:09:08;98079.69;;;6.49;100.00
7614;BME280;3848;42.016;23.098;2022-12-29T01:11:54;98071.88;;;6.40;100.00
7614;BME280;3848;42.016;23.098;2022-12-29T01:14:21;98072.56;;;6.33;100.00
7614;BME280;3848;42.016;23.098;2022-12-29T01:16:49;98059.81;;;6.27;100.00
7614;BME280;3848;42.016;23.098;2022-12-29T01:19:17;98076.88;;;6.37;100.00
7614;BME280;3848;42.016;23.098;2022-12-29T01:21:44;98075.16;;;6.36;100.00
7614;BME280;3848;42.016;23.098;2022-12-29T01:24:11;98066.72;;;6.34;100.00
7614;BME280;3848;42.016;23.098;2022-12-29T01:26:38;98070.16;;;6.37;100.00
7614;BME280;3848;42.016;23.098;2022-12-29T01:29:06;98064.31;;;6.40;100.00
7614;BME280;3848;42.016;23.098;2022-12-29T01:31:33;98068.59;;;6.42;100.00
7614;BME280;3848;42.016;23.098;2022-12-29T01:33:59;98065.28;;;6.45;100.00
7614;BME280;3848;42.016;23.098;2022-12-29T01:36:27;98052.59;;;6.42;100.00
7614;BME280;3848;42.016;23.098;2022-12-29T01:38:53;98059.31;;;6.41;100.00
7614;BME280;3848;42.016;23.098;2022-12-29T01:41:20;98065.91;;;6.36;100.00
7614;BME280;3848;42.016;23.098;2022-12-29T01:43:48;98037.94;;;6.26;100.00
7614;BME280;3848;42.016;23.098;2022-12-29T01:46:21;98057.47;;;6.34;100.00
7614;BME280;3848;42.016;23.098;2022-12-29T01:48:54;98063.38;;;6.35;100.00
7614;BME280;3848;42.016;23.098;2022-12-29T01:51:25;98052.41;;;6.34;100.00
7614;BME280;3848;42.016;23.098;2022-12-29T01:53:53;98068.22;;;6.26;100.00
7614;BME280;3848;42.016;23.098;2022-12-29T01:56:22;98058.72;;;6.17;100.00
7614;BME280;3848;42.016;23.098;2022-12-29T01:58:54;98052.44;;;6.01;100.00
7614;BME280;3848;42.016;23.098;2022-12-29T02:01:23;98050.81;;;6.03;100.00
7614;BME280;3848;42.016;23.098;2022-12-29T02:03:51;98051.59;;;6.01;100.00
7614;BME280;3848;42.016;23.098;2022-12-29T02:06:21;97991.03;;;5.66;100.00
7614;BME280;3848;42.016;23.098;2022-12-29T02:08:50;98050.06;;;6.06;100.00
7614;BME280;3848;42.016;23.098;2022-12-29T02:11:19;98047.56;;;6.07;100.00
7614;BME280;3848;42.016;23.098;2022-12-29T02:13:46;98041.81;;;6.13;100.00
7614;BME280;3848;42.016;23.098;2022-12-29T02:16:31;98035.91;;;6.13;100.00
7614;BME280;3848;42.016;23.098;2022-12-29T02:22:02;98036.91;;;6.19;100.00
7614;BME280;3848;42.016;23.098;2022-12-29T02:24:55;98044.69;;;6.27;100.00
7614;BME280;3848;42.016;23.098;2022-12-29T02:27:55;98046.38;;;6.28;100.00
7614;BME280;3848;42.016;23.098;2022-12-29T02:31:03;98037.13;;;6.28;100.00
7614;BME280;3848;42.016;23.098;2022-12-29T02:33:45;98046.50;;;6.34;100.00
7614;BME280;3848;42.016;23.098;2022-12-29T02:36:22;98042.31;;;6.34;100.00
7614;BME280;3848;42.016;23.098;2022-12-29T02:39:01;98042.44;;;6.40;100.00
7614;BME280;3848;42.016;23.098;2022-12-29T02:41:33;98039.97;;;6.42;100.00
7614;BME280;3848;42.016;23.098;2022-12-29T02:44:06;98038.41;;;6.47;100.00
7614;BME280;3848;42.016;23.098;2022-12-29T02:46:44;98031.50;;;6.40;100.00
7614;BME280;3848;42.016;23.098;2022-12-29T02:49:16;97999.25;;;6.27;100.00
7614;BME280;3848;42.016;23.098;2022-12-29T02:51:51;98022.25;;;6.40;100.00
7614;BME280;3848;42.016;23.098;2022-12-29T02:54:19;98038.44;;;6.49;100.00
7614;BME280;3848;42.016;23.098;2022-12-29T02:57:07;98043.53;;;6.50;100.00
7614;BME280;3848;42.016;23.098;2022-12-29T02:59:35;98036.84;;;6.52;100.00
7614;BME280;3848;42.016;23.098;2022-12-29T03:02:17;98035.91;;;6.47;100.00
7614;BME280;3848;42.016;23.098;2022-12-29T03:05:02;98037.56;;;6.47;100.00
7614;BME280;3848;42.016;23.098;2022-12-29T03:07:39;98034.03;;;6.40;100.00
7614;BME280;3848;42.016;23.098;2022-12-29T03:10:13;98046.81;;;6.46;100.00
7614;BME280;3848;42.016;23.098;2022-12-29T03:12:46;98046.81;;;6.46;100.00
7614;BME280;3848;42.016;23.098;2022-12-29T03:15:34;98034.78;;;6.36;100.00
7614;BME280;3848;42.016;23.098;2022-12-29T03:18:39;98034.13;;;6.45;100.00
7614;BME280;3848;42.016;23.098;2022-12-29T03:21:12;98023.03;;;6.38;100.00
7614;BME280;3848;42.016;23.098;2022-12-29T03:23:42;98019.53;;;6.31;100.00
7614;BME280;3848;42.016;23.098;2022-12-29T03:26:14;98029.66;;;6.33;100.00
7614;BME280;3848;42.016;23.098;2022-12-29T03:28:45;98031.94;;;6.22;100.00
7614;BME280;3848;42.016;23.098;2022-12-29T03:31:14;98035.28;;;6.21;100.00
7614;BME280;3848;42.016;23.098;2022-12-29T03:33:43;98027.66;;;6.20;100.00
7614;BME280;3848;42.016;23.098;2022-12-29T03:36:15;98035.03;;;6.10;100.00
7614;BME280;3848;42.016;23.098;2022-12-29T03:38:47;98034.66;;;5.95;100.00
7614;BME280;3848;42.016;23.098;2022-12-29T03:41:21;98036.16;;;5.89;100.00
7614;BME280;3848;42.016;23.098;2022-12-29T03:43:49;98045.34;;;5.87;100.00
7614;BME280;3848;42.016;23.098;2022-12-29T03:46:16;98021.47;;;5.74;100.00
7614;BME280;3848;42.016;23.098;2022-12-29T03:48:44;98044.56;;;5.89;100.00
7614;BME280;3848;42.016;23.098;2022-12-29T03:51:11;98048.81;;;5.90;100.00
7614;BME280;3848;42.016;23.098;2022-12-29T03:53:38;98001.13;;;5.66;100.00
7614;BME280;3848;42.016;23.098;2022-12-29T03:56:05;98049.00;;;5.98;100.00
7614;BME280;3848;42.016;23.098;2022-12-29T03:58:32;98055.84;;;6.03;100.00
7614;BME280;3848;42.016;23.098;2022-12-29T04:00:59;98055.94;;;6.05;100.00
7614;BME280;3848;42.016;23.098;2022-12-29T04:03:25;98050.03;;;6.04;100.00
7614;BME280;3848;42.016;23.098;2022-12-29T04:05:54;98057.81;;;6.14;100.00
7614;BME280;3848;42.016;23.098;2022-12-29T04:08:20;98052.81;;;6.17;100.00
7614;BME280;3848;42.016;23.098;2022-12-29T04:10:48;98052.91;;;6.20;100.00
7614;BME280;3848;42.016;23.098;2022-12-29T04:13:14;98049.63;;;6.24;100.00
7614;BME280;3848;42.016;23.098;2022-12-29T04:15:42;98054.78;;;6.27;100.00
7614;BME280;3848;42.016;23.098;2022-12-29T04:18:10;98044.69;;;6.27;100.00
7614;BME280;3848;42.016;23.098;2022-12-29T04:20:37;98051.56;;;6.34;100.00
7614;BME280;3848;42.016;23.098;2022-12-29T04:23:22;98056.59;;;6.34;100.00
7614;BME280;3848;42.016;23.098;2022-12-29T04:25:49;98060.09;;;6.39;100.00
7614;BME280;3848;42.016;23.098;2022-12-29T04:28:17;98060.97;;;6.41;100.00
7614;BME280;3848;42.016;23.098;2022-12-29T04:30:44;98051.56;;;6.34;100.00
7614;BME280;3848;42.016;23.098;2022-12-29T04:33:11;98059.25;;;6.40;100.00
7614;BME280;3848;42.016;23.098;2022-12-29T04:35:38;98067.72;;;6.42;100.00
7614;BME280;3848;42.016;23.098;2022-12-29T04:38:05;98067.78;;;6.45;100.00
7614;BME280;3848;42.016;23.098;2022-12-29T04:40:33;98070.31;;;6.45;100.00
7614;BME280;3848;42.016;23.098;2022-12-29T04:43:00;98061.97;;;6.46;100.00
7614;BME280;3848;42.016;23.098;2022-12-29T04:45:27;98063.56;;;6.44;100.00
7614;BME280;3848;42.016;23.098;2022-12-29T04:47:54;98066.22;;;6.49;100.00
7614;BME280;3848;42.016;23.098;2022-12-29T04:50:20;98067.94;;;6.50;100.00
7614;BME280;3848;42.016;23.098;2022-12-29T04:52:47;98073.00;;;6.51;100.00
7614;BME280;3848;42.016;23.098;2022-12-29T04:55:14;98083.19;;;6.54;100.00
7614;BME280;3848;42.016;23.098;2022-12-29T04:57:42;98076.41;;;6.53;100.00
7614;BME280;3848;42.016;23.098;2022-12-29T05:00:10;98076.47;;;6.56;100.00
7614;BME280;3848;42.016;23.098;2022-12-29T05:02:37;98080.72;;;6.57;100.00
7614;BME280;3848;42.016;23.098;2022-12-29T05:05:05;98083.19;;;6.54;100.00
7614;BME280;3848;42.016;23.098;2022-12-29T05:07:32;98081.50;;;6.55;100.00
7614;BME280;3848;42.016;23.098;2022-12-29T05:09:59;98066.94;;;6.45;100.00
7614;BME280;3848;42.016;23.098;2022-12-29T05:12:29;98079.56;;;6.45;100.00
7614;BME280;3848;42.016;23.098;2022-12-29T05:14:57;98085.44;;;6.43;100.00
7614;BME280;3848;42.016;23.098;2022-12-29T05:20:41;98095.44;;;6.39;100.00
7614;BME280;3848;42.016;23.098;2022-12-29T05:23:08;98081.84;;;6.34;100.00
7614;BME280;3848;42.016;23.098;2022-12-29T05:25:34;98095.50;;;6.42;100.00
7614;BME280;3848;42.016;23.098;2022-12-29T05:28:02;98096.28;;;6.39;100.00
7614;BME280;3848;42.016;23.098;2022-12-29T05:30:30;98103.81;;;6.38;100.00
7614;BME280;3848;42.016;23.098;2022-12-29T05:32:57;98102.09;;;6.37;100.00
7614;BME280;3848;42.016;23.098;2022-12-29T05:35:23;98100.41;;;6.36;100.00
7614;BME280;3848;42.016;23.098;2022-12-29T05:37:50;98106.19;;;6.32;100.00
7614;BME280;3848;42.016;23.098;2022-12-29T05:40:17;98101.97;;;6.31;100.00
7614;BME280;3848;42.016;23.098;2022-12-29T05:42:44;98101.97;;;6.31;100.00
7614;BME280;3848;42.016;23.098;2022-12-29T05:45:10;98101.13;;;6.30;100.00
7614;BME280;3848;42.016;23.098;2022-12-29T05:47:38;98100.94;;;6.24;100.00
7614;BME280;3848;42.016;23.098;2022-12-29T05:50:06;98093.13;;;6.14;100.00
7614;BME280;3848;42.016;23.098;2022-12-29T05:52:41;98085.41;;;6.07;100.00
7614;BME280;3848;42.016;23.098;2022-12-29T05:55:09;98108.19;;;6.10;100.00
7614;BME280;3848;42.016;23.098;2022-12-29T05:57:36;98111.31;;;6.02;100.00
7614;BME280;3848;42.016;23.098;2022-12-29T06:00:03;98097.44;;;5.86;100.00
7614;BME280;3848;42.016;23.098;2022-12-29T06:02:30;98111.13;;;5.94;100.00
7614;BME280;3848;42.016;23.098;2022-12-29T06:04:59;98113.78;;;5.99;100.00
7614;BME280;3848;42.016;23.098;2022-12-29T06:07:25;98112.25;;;6.04;100.00
7614;BME280;3848;42.016;23.098;2022-12-29T06:09:52;98116.50;;;6.06;100.00
7614;BME280;3848;42.016;23.098;2022-12-29T06:12:19;98086.50;;;5.86;100.00
7614;BME280;3848;42.016;23.098;2022-12-29T06:14:46;98118.19;;;6.06;100.00
7614;BME280;3848;42.016;23.098;2022-12-29T06:17:13;98113.16;;;6.07;100.00
7614;BME280;3848;42.016;23.098;2022-12-29T06:19:40;98119.19;;;6.13;100.00
7614;BME280;3848;42.016;23.098;2022-12-29T06:22:08;98126.81;;;6.16;100.00
7614;BME280;3848;42.016;23.098;2022-12-29T06:24:37;98115.84;;;6.14;100.00
7614;BME280;3848;42.016;23.098;2022-12-29T06:27:04;98120.19;;;6.19;100.00
7614;BME280;3848;42.016;23.098;2022-12-29T06:29:31;98116.88;;;6.22;100.00
7614;BME280;3848;42.016;23.098;2022-12-29T06:31:57;98121.22;;;5.94;100.00
7614;BME280;3848;42.016;23.098;2022-12-29T06:34:24;98124.75;;;6.01;100.00
7614;BME280;3848;42.016;23.098;2022-12-29T06:36:51;98130.31;;;5.89;100.00
7614;BME280;3848;42.016;23.098;2022-12-29T06:39:20;98125.00;;;5.80;100.00
7614;BME280;3848;42.016;23.098;2022-12-29T06:41:46;98133.94;;;5.67;100.00
7614;BME280;3848;42.016;23.098;2022-12-29T06:44:13;98141.03;;;5.50;100.00
7614;BME280;3848;42.016;23.098;2022-12-29T06:46:40;98140.94;;;5.47;100.00
7614;BME280;3848;42.016;23.098;2022-12-29T06:49:07;98136.84;;;5.51;100.00
7614;BME280;3848;42.016;23.098;2022-12-29T06:51:34;98136.88;;;5.53;100.00
7614;BME280;3848;42.016;23.098;2022-12-29T06:54:00;98137.84;;;5.58;100.00
7614;BME280;3848;42.016;23.098;2022-12-29T06:56:29;98142.97;;;5.61;100.00
7614;BME280;3848;42.016;23.098;2022-12-29T06:58:56;98145.50;;;5.61;100.00
7614;BME280;3848;42.016;23.098;2022-12-29T07:01:25;98029.31;;;4.92;100.00
7614;BME280;3848;42.016;23.098;2022-12-29T07:03:52;98147.13;;;5.59;100.00
7614;BME280;3848;42.016;23.098;2022-12-29T07:06:19;98139.31;;;5.49;100.00
7614;BME280;3848;42.016;23.098;2022-12-29T07:08:46;98143.69;;;5.57;100.00
7614;BME280;3848;42.016;23.098;2022-12-29T07:11:13;98138.66;;;5.57;100.00
7614;BME280;3848;42.016;23.098;2022-12-29T07:13:41;98139.00;;;5.69;100.00
7614;BME280;3848;42.016;23.098;2022-12-29T07:16:08;98100.84;;;5.57;100.00
7614;BME280;3848;42.016;23.098;2022-12-29T07:18:36;98137.78;;;5.85;100.00
7614;BME280;3848;42.016;23.098;2022-12-29T07:21:03;98129.09;;;5.75;100.00
7614;BME280;3848;42.016;23.098;2022-12-29T07:23:30;98147.03;;;5.86;100.00
7614;BME280;3848;42.016;23.098;2022-12-29T07:26:01;98149.75;;;5.92;100.00
7614;BME280;3848;42.016;23.098;2022-12-29T07:28:28;98138.22;;;6.01;100.00
7614;BME280;3848;42.016;23.098;2022-12-29T07:30:57;98145.97;;;6.07;100.00
7614;BME280;3848;42.016;23.098;2022-12-29T07:33:24;98135.22;;;6.15;100.00
7614;BME280;3848;42.016;23.098;2022-12-29T07:35:51;98143.06;;;6.25;100.00
7614;BME280;3848;42.016;23.098;2022-12-29T07:38:18;98152.19;;;6.22;100.00
7614;BME280;3848;42.016;23.098;2022-12-29T07:40:45;98134.31;;;6.13;100.00
7614;BME280;3848;42.016;23.098;2022-12-29T07:43:12;98150.56;;;6.24;100.00
7614;BME280;3848;42.016;23.098;2022-12-29T07:45:38;98139.50;;;6.19;100.00
7614;BME280;3848;42.016;23.098;2022-12-29T07:48:07;98148.28;;;6.33;100.00
7614;BME280;3848;42.016;23.098;2022-12-29T07:50:34;98145.06;;;6.38;100.00
7614;BME280;3848;42.016;23.098;2022-12-29T07:53:02;98100.88;;;6.21;100.00
7614;BME280;3848;42.016;23.098;2022-12-29T07:55:29;98144.66;;;6.56;100.00
7614;BME280;3848;42.016;23.098;2022-12-29T07:57:56;98150.56;;;6.57;100.00
7614;BME280;3848;42.016;23.098;2022-12-29T08:00:23;98136.25;;;6.57;100.00
7614;BME280;3848;42.016;23.098;2022-12-29T08:02:50;98140.78;;;6.70;100.00
7614;BME280;3848;42.016;23.098;2022-12-29T08:05:19;98149.44;;;6.80;100.00
7614;BME280;3848;42.016;23.098;2022-12-29T08:07:47;98148.56;;;6.80;100.00
7614;BME280;3848;42.016;23.098;2022-12-29T08:10:14;98158.97;;;6.92;100.00
7614;BME280;3848;42.016;23.098;2022-12-29T08:12:41;98168.41;;;7.00;100.00
7614;BME280;3848;42.016;23.098;2022-12-29T08:15:10;98168.38;;;6.99;100.00
7614;BME280;3848;42.016;23.098;2022-12-29T08:17:37;98163.72;;;6.80;100.00
7614;BME280;3848;42.016;23.098;2022-12-29T08:20:05;98158.00;;;6.87;100.00
7614;BME280;3848;42.016;23.098;2022-12-29T08:22:33;98168.44;;;7.02;100.00
7614;BME280;3848;42.016;23.098;2022-12-29T08:25:00;98171.03;;;7.05;100.00
7614;BME280;3848;42.016;23.098;2022-12-29T08:27:27;98168.34;;;6.97;100.00
7614;BME280;3848;42.016;23.098;2022-12-29T08:29:54;98165.28;;;7.09;100.00
7614;BME280;3848;42.016;23.098;2022-12-29T08:32:21;98167.19;;;7.21;100.00
7614;BME280;3848;42.016;23.098;2022-12-29T08:34:48;98137.53;;;7.12;100.00
7614;BME280;3848;42.016;23.098;2022-12-29T08:37:14;98166.06;;;7.47;100.00
7614;BME280;3848;42.016;23.098;2022-12-29T08:39:43;98174.75;;;7.58;100.00
7614;BME280;3848;42.016;23.098;2022-12-29T08:42:09;98162.81;;;7.51;100.00
7614;BME280;3848;42.016;23.098;2022-12-29T08:44:36;98162.88;;;7.56;100.00
7614;BME280;3848;42.016;23.098;2022-12-29T08:47:03;98164.78;;;7.68;100.00
7614;BME280;3848;42.016;23.098;2022-12-29T08:49:30;98100.25;;;7.44;100.00
7614;BME280;3848;42.016;23.098;2022-12-29T08:51:58;98165.75;;;7.73;100.00
7614;BME280;3848;42.016;23.098;2022-12-29T08:54:25;98159.03;;;7.73;100.00
7614;BME280;3848;42.016;23.098;2022-12-29T08:56:53;98163.41;;;7.82;100.00
7614;BME280;3848;42.016;23.098;2022-12-29T08:59:20;98153.88;;;7.70;100.00
7614;BME280;3848;42.016;23.098;2022-12-29T09:01:47;98155.81;;;7.82;100.00
7614;BME280;3848;42.016;23.098;2022-12-29T09:04:14;98150.06;;;7.90;100.00
7614;BME280;3848;42.016;23.098;2022-12-29T09:06:40;98139.19;;;7.94;100.00
7614;BME280;3848;42.016;23.098;2022-12-29T09:09:07;98146.06;;;8.02;100.00
7614;BME280;3848;42.016;23.098;2022-12-29T09:11:34;98140.56;;;8.24;100.00
7614;BME280;3848;42.016;23.098;2022-12-29T09:14:02;98127.53;;;8.51;100.00
7614;BME280;3848;42.016;23.098;2022-12-29T09:16:30;98134.38;;;8.55;100.00
7614;BME280;3848;42.016;23.098;2022-12-29T09:18:56;98121.19;;;8.76;100.00
7614;BME280;3848;42.016;23.098;2022-12-29T09:21:23;98121.28;;;8.82;100.00
7614;BME280;3848;42.016;23.098;2022-12-29T09:23:50;98132.25;;;8.81;100.00
7614;BME280;3848;42.016;23.098;2022-12-29T09:26:17;98115.66;;;9.03;100.00
7614;BME280;3848;42.016;23.098;2022-12-29T09:28:44;98118.47;;;9.23;100.00
7614;BME280;3848;42.016;23.098;2022-12-29T09:31:13;98114.53;;;9.46;100.00
7614;BME280;3848;42.016;23.098;2022-12-29T09:33:39;98109.41;;;9.41;100.00
7614;BME280;3848;42.016;23.098;2022-12-29T09:36:08;98111.16;;;9.47;100.00
7614;BME280;3848;42.016;23.098;2022-12-29T09:38:35;98074.63;;;9.33;100.00
7614;BME280;3848;42.016;23.098;2022-12-29T09:41:06;98098.25;;;10.03;100.00
7614;BME280;3848;42.016;23.098;2022-12-29T09:44:10;98088.38;;;10.35;100.00
7614;BME280;3848;42.016;23.098;2022-12-29T09:46:43;98101.22;;;10.50;100.00
7614;BME280;3848;42.016;23.098;2022-12-29T09:49:20;98078.25;;;10.38;100.00
7614;BME280;3848;42.016;23.098;2022-12-29T09:51:50;98092.88;;;10.63;100.00
7614;BME280;3848;42.016;23.098;2022-12-29T09:54:40;98093.66;;;10.58;100.00
7614;BME280;3848;42.016;23.098;2022-12-29T09:57:15;98088.72;;;10.79;100.00
7614;BME280;3848;42.016;23.098;2022-12-29T09:59:45;98078.81;;;11.26;100.00
7614;BME280;3848;42.016;23.098;2022-12-29T10:02:31;98082.31;;;11.57;100.00
7614;BME280;3848;42.016;23.098;2022-12-29T10:04:58;98078.91;;;11.48;100.00
7614;BME280;3848;42.016;23.098;2022-12-29T10:07:33;98073.78;;;11.45;100.00
7614;BME280;3848;42.016;23.098;2022-12-29T10:10:24;98057.69;;;11.50;100.00
7614;BME280;3848;42.016;23.098;2022-12-29T10:13:09;98067.06;;;11.64;100.00
7614;BME280;3848;42.016;23.098;2022-12-29T10:15:52;98074.69;;;11.54;100.00
7614;BME280;3848;42.016;23.098;2022-12-29T10:18:36;98066.88;;;11.15;100.00
7614;BME280;3848;42.016;23.098;2022-12-29T10:21:11;98066.97;;;11.39;100.00
7614;BME280;3848;42.016;23.098;2022-12-29T10:23:42;98062.03;;;11.79;100.00
7614;BME280;3848;42.016;23.098;2022-12-29T10:26:14;98046.81;;;12.37;100.00
7614;BME280;3848;42.016;23.098;2022-12-29T10:28:44;98043.38;;;12.77;100.00
7614;BME280;3848;42.016;23.098;2022-12-29T10:31:14;98049.31;;;12.67;100.00
7614;BME280;3848;42.016;23.098;2022-12-29T10:33:49;98034.03;;;12.72;100.00
7614;BME280;3848;42.016;23.098;2022-12-29T10:36:18;98038.94;;;13.42;100.00
7614;BME280;3848;42.016;23.098;2022-12-29T10:38:54;98036.91;;;13.96;100.00
7614;BME280;3848;42.016;23.098;2022-12-29T10:41:28;98035.19;;;13.95;100.00
7614;BME280;3848;42.016;23.098;2022-12-29T10:44:00;98022.94;;;14.37;100.00
7614;BME280;3848;42.016;23.098;2022-12-29T10:46:31;98028.63;;;14.71;100.00
7614;BME280;3848;42.016;23.098;2022-12-29T10:49:01;98024.88;;;15.04;100.00
7614;BME280;3848;42.016;23.098;2022-12-29T10:51:32;98018.44;;;15.43;96.20
7614;BME280;3848;42.016;23.098;2022-12-29T10:54:04;98013.53;;;15.89;93.59
7614;BME280;3848;42.016;23.098;2022-12-29T10:56:34;98010.16;;;16.38;85.47
7614;BME280;3848;42.016;23.098;2022-12-29T10:59:10;98009.34;;;16.87;79.98
7614;BME280;3848;42.016;23.098;2022-12-29T11:01:45;98001.25;;;17.47;78.90
7614;BME280;3848;42.016;23.098;2022-12-29T11:04:35;97998.34;;;18.01;74.90
7614;BME280;3848;42.016;23.098;2022-12-29T11:07:05;97994.69;;;18.45;73.54
7614;BME280;3848;42.016;23.098;2022-12-29T11:09:36;97988.22;;;17.94;70.86
7614;BME280;3848;42.016;23.098;2022-12-29T11:12:18;97982.50;;;17.82;72.57
7614;BME280;3848;42.016;23.098;2022-12-29T11:14:45;97978.97;;;17.47;73.06
7614;BME280;3848;42.016;23.098;2022-12-29T11:17:15;97962.94;;;16.96;76.08
7614;BME280;3848;42.016;23.098;2022-12-29T11:19:43;97988.97;;;16.77;82.53
7614;BME280;3848;42.016;23.098;2022-12-29T11:22:19;97981.16;;;16.82;82.90
7614;BME280;3848;42.016;23.098;2022-12-29T11:24:48;97970.47;;;17.03;83.37
7614;BME280;3848;42.016;23.098;2022-12-29T11:27:17;97974.25;;;17.27;83.03
7614;BME280;3848;42.016;23.098;2022-12-29T11:29:46;97962.66;;;17.50;75.94
7614;BME280;3848;42.016;23.098;2022-12-29T11:32:18;97959.63;;;17.32;74.19
7614;BME280;3848;42.016;23.098;2022-12-29T11:34:47;97947.97;;;16.74;78.39
7614;BME280;3848;42.016;23.098;2022-12-29T11:37:16;97953.16;;;16.71;81.71
7614;BME280;3848;42.016;23.098;2022-12-29T11:39:49;97933.84;;;16.95;81.17
7614;BME280;3848;42.016;23.098;2022-12-29T11:42:19;97948.31;;;16.99;79.46
7614;BME280;3848;42.016;23.098;2022-12-29T11:44:49;97942.28;;;16.56;83.20
7614;BME280;3848;42.016;23.098;2022-12-29T11:47:26;97932.22;;;15.39;94.98
7614;BME280;3848;42.016;23.098;2022-12-29T11:49:58;97941.31;;;14.98;100.00
7614;BME280;3848;42.016;23.098;2022-12-29T11:52:28;97937.31;;;14.76;100.00
7614;BME280;3848;42.016;23.098;2022-12-29T11:54:59;97926.81;;;14.22;100.00
7614;BME280;3848;42.016;23.098;2022-12-29T11:57:27;97936.06;;;14.30;100.00
7614;BME280;3848;42.016;23.098;2022-12-29T11:59:55;97932.09;;;14.00;100.00
7614;BME280;3848;42.016;23.098;2022-12-29T12:02:41;97940.59;;;14.02;100.00
7614;BME280;3848;42.016;23.098;2022-12-29T12:05:14;97927.09;;;13.87;100.00
7614;BME280;3848;42.016;23.098;2022-12-29T12:07:45;97920.41;;;13.75;100.00
7614;BME280;3848;42.016;23.098;2022-12-29T12:10:21;97926.28;;;13.85;100.00
7614;BME280;3848;42.016;23.098;2022-12-29T12:12:53;97922.94;;;13.77;100.00
7614;BME280;3848;42.016;23.098;2022-12-29T12:15:28;97924.63;;;13.79;100.00
7614;BME280;3848;42.016;23.098;2022-12-29T12:18:02;97927.16;;;13.82;100.00
7614;BME280;3848;42.016;23.098;2022-12-29T12:20:38;97918.00;;;13.54;100.00
7614;BME280;3848;42.016;23.098;2022-12-29T12:23:17;97903.53;;;13.51;100.00
7614;BME280;3848;42.016;23.098;2022-12-29T12:25:53;97912.88;;;13.57;100.00
7614;BME280;3848;42.016;23.098;2022-12-29T12:28:28;97906.00;;;13.63;100.00
7614;BME280;3848;42.016;23.098;2022-12-29T12:31:00;97889.03;;;13.53;100.00
7614;BME280;3848;42.016;23.098;2022-12-29T12:33:32;97905.97;;;13.68;100.00
7614;BME280;3848;42.016;23.098;2022-12-29T12:36:25;97905.25;;;13.54;100.00
7614;BME280;3848;42.016;23.098;2022-12-29T12:39:01;97907.88;;;13.40;100.00
7614;BME280;3848;42.016;23.098;2022-12-29T12:41:35;97892.59;;;13.35;100.00
7614;BME280;3848;42.016;23.098;2022-12-29T12:44:12;97878.25;;;13.19;100.00
7614;BME280;3848;42.016;23.098;2022-12-29T12:47:06;97883.38;;;13.07;100.00
7614;BME280;3848;42.016;23.098;2022-12-29T12:52:47;97914.88;;;13.03;100.00
7614;BME280;3848;42.016;23.098;2022-12-29T12:55:33;97911.53;;;12.92;100.00
7614;BME280;3848;42.016;23.098;2022-12-29T12:58:12;97909.06;;;12.67;100.00
7614;BME280;3848;42.016;23.098;2022-12-29T13:00:58;97856.53;;;12.36;100.00
7614;BME280;3848;42.016;23.098;2022-12-29T13:03:41;97911.63;;;12.75;100.00
7614;BME280;3848;42.016;23.098;2022-12-29T13:06:18;97909.03;;;12.79;100.00
7614;BME280;3848;42.016;23.098;2022-12-29T13:09:04;97888.66;;;12.76;100.00
7614;BME280;3848;42.016;23.098;2022-12-29T13:11:47;97909.84;;;12.85;100.00
7614;BME280;3848;42.016;23.098;2022-12-29T13:14:25;97913.31;;;12.70;100.00
7614;BME280;3848;42.016;23.098;2022-12-29T13:17:03;97916.72;;;12.67;100.00
7614;BME280;3848;42.016;23.098;2022-12-29T13:19:37;97898.91;;;12.61;100.00
7614;BME280;3848;42.016;23.098;2022-12-29T13:22:09;97898.94;;;12.54;100.00
7614;BME280;3848;42.016;23.098;2022-12-29T13:24:47;97903.16;;;12.62;100.00
7614;BME280;3848;42.016;23.098;2022-12-29T13:27:21;97915.88;;;12.74;100.00
7614;BME280;3848;42.016;23.098;2022-12-29T13:29:57;97910.75;;;12.74;100.00
7614;BME280;3848;42.016;23.098;2022-12-29T13:32:42;97903.97;;;12.70;100.00
7614;BME280;3848;42.016;23.098;2022-12-29T13:35:31;97915.81;;;12.80;100.00
7614;BME280;3848;42.016;23.098;2022-12-29T13:38:09;97909.03;;;12.79;100.00
7614;BME280;3848;42.016;23.098;2022-12-29T13:40:43;97898.00;;;12.68;100.00